sensor_id;sensor_type;location;lat;lon;timestamp;P1;durP1;ratioP1;P2;durP2;ratioP2
41677;SDS011;27364;49.026;8.712;2022-07-23T00:01:24;7.18;;;4.97;;
41677;SDS011;27364;49.026;8.712;2022-07-23T00:03:52;8.73;;;5.10;;
41677;SDS011;27364;49.026;8.712;2022-07-23T00:06:19;7.43;;;5.72;;
41677;SDS011;27364;49.026;8.712;2022-07-23T00:08:45;7.03;;;5.22;;
41677;SDS011;27364;49.026;8.712;2022-07-23T00:11:10;6.15;;;5.10;;
41677;SDS011;27364;49.026;8.712;2022-07-23T00:13:36;6.75;;;5.28;;
41677;SDS011;27364;49.026;8.712;2022-07-23T00:16:02;7.72;;;5.40;;
41677;SDS011;27364;49.026;8.712;2022-07-23T00:18:28;7.65;;;5.30;;
41677;SDS011;27364;49.026;8.712;2022-07-23T00:20:53;7.70;;;5.13;;
41677;SDS011;27364;49.026;8.712;2022-07-23T00:23:19;7.18;;;5.25;;
41677;SDS011;27364;49.026;8.712;2022-07-23T00:25:44;6.63;;;5.00;;
41677;SDS011;27364;49.026;8.712;2022-07-23T00:28:10;6.65;;;5.25;;
41677;SDS011;27364;49.026;8.712;2022-07-23T00:30:36;7.80;;;5.25;;
41677;SDS011;27364;49.026;8.712;2022-07-23T00:33:03;6.95;;;5.55;;
41677;SDS011;27364;49.026;8.712;2022-07-23T00:35:34;7.50;;;4.93;;
41677;SDS011;27364;49.026;8.712;2022-07-23T00:38:02;7.43;;;5.38;;
41677;SDS011;27364;49.026;8.712;2022-07-23T00:40:29;8.23;;;5.50;;
41677;SDS011;27364;49.026;8.712;2022-07-23T00:42:55;6.32;;;5.10;;
41677;SDS011;27364;49.026;8.712;2022-07-23T00:45:22;6.22;;;4.90;;
41677;SDS011;27364;49.026;8.712;2022-07-23T00:47:48;6.88;;;5.15;;
41677;SDS011;27364;49.026;8.712;2022-07-23T00:50:14;6.47;;;5.23;;
41677;SDS011;27364;49.026;8.712;2022-07-23T00:52:40;6.93;;;5.18;;
41677;SDS011;27364;49.026;8.712;2022-07-23T00:55:06;6.18;;;5.05;;
41677;SDS011;27364;49.026;8.712;2022-07-23T00:57:33;8.55;;;5.07;;
41677;SDS011;27364;49.026;8.712;2022-07-23T00:59:59;6.20;;;5.25;;
41677;SDS011;27364;49.026;8.712;2022-07-23T01:02:26;6.65;;;5.15;;
41677;SDS011;27364;49.026;8.712;2022-07-23T01:04:51;6.88;;;4.60;;
41677;SDS011;27364;49.026;8.712;2022-07-23T01:07:17;8.18;;;4.97;;
41677;SDS011;27364;49.026;8.712;2022-07-23T01:09:44;6.70;;;5.03;;
41677;SDS011;27364;49.026;8.712;2022-07-23T01:12:12;6.88;;;4.63;;
41677;SDS011;27364;49.026;8.712;2022-07-23T01:14:37;6.68;;;4.53;;
41677;SDS011;27364;49.026;8.712;2022-07-23T01:17:03;5.95;;;4.30;;
41677;SDS011;27364;49.026;8.712;2022-07-23T01:19:29;5.65;;;4.15;;
41677;SDS011;27364;49.026;8.712;2022-07-23T01:21:55;5.55;;;4.40;;
41677;SDS011;27364;49.026;8.712;2022-07-23T01:24:22;5.55;;;4.13;;
41677;SDS011;27364;49.026;8.712;2022-07-23T01:26:48;7.10;;;4.25;;
41677;SDS011;27364;49.026;8.712;2022-07-23T01:29:14;5.88;;;4.28;;
41677;SDS011;27364;49.026;8.712;2022-07-23T01:31:40;5.88;;;4.05;;
41677;SDS011;27364;49.026;8.712;2022-07-23T01:34:06;6.82;;;4.40;;
41677;SDS011;27364;49.026;8.712;2022-07-23T01:36:33;5.07;;;3.85;;
41677;SDS011;27364;49.026;8.712;2022-07-23T01:38:59;6.05;;;4.43;;
41677;SDS011;27364;49.026;8.712;2022-07-23T01:41:24;7.00;;;4.28;;
41677;SDS011;27364;49.026;8.712;2022-07-23T01:43:50;5.20;;;3.90;;
41677;SDS011;27364;49.026;8.712;2022-07-23T01:46:16;8.05;;;4.15;;
41677;SDS011;27364;49.026;8.712;2022-07-23T01:48:41;6.55;;;3.95;;
41677;SDS011;27364;49.026;8.712;2022-07-23T01:51:07;5.72;;;3.95;;
41677;SDS011;27364;49.026;8.712;2022-07-23T01:53:33;5.75;;;4.05;;
41677;SDS011;27364;49.026;8.712;2022-07-23T01:55:59;6.55;;;4.55;;
41677;SDS011;27364;49.026;8.712;2022-07-23T01:58:25;5.25;;;3.75;;
41677;SDS011;27364;49.026;8.712;2022-07-23T02:00:51;5.90;;;3.83;;
41677;SDS011;27364;49.026;8.712;2022-07-23T02:03:17;7.50;;;4.10;;
41677;SDS011;27364;49.026;8.712;2022-07-23T02:05:43;5.97;;;4.10;;
41677;SDS011;27364;49.026;8.712;2022-07-23T02:08:08;7.55;;;4.28;;
41677;SDS011;27364;49.026;8.712;2022-07-23T02:10:34;5.80;;;4.30;;
41677;SDS011;27364;49.026;8.712;2022-07-23T02:12:59;5.45;;;4.13;;
41677;SDS011;27364;49.026;8.712;2022-07-23T02:15:25;6.20;;;4.13;;
41677;SDS011;27364;49.026;8.712;2022-07-23T02:17:50;6.07;;;3.85;;
41677;SDS011;27364;49.026;8.712;2022-07-23T02:20:16;6.85;;;4.25;;
41677;SDS011;27364;49.026;8.712;2022-07-23T02:22:42;6.00;;;4.43;;
41677;SDS011;27364;49.026;8.712;2022-07-23T02:25:07;5.18;;;4.10;;
41677;SDS011;27364;49.026;8.712;2022-07-23T02:27:34;5.93;;;4.50;;
41677;SDS011;27364;49.026;8.712;2022-07-23T02:30:01;9.13;;;4.20;;
41677;SDS011;27364;49.026;8.712;2022-07-23T02:32:27;6.40;;;4.47;;
41677;SDS011;27364;49.026;8.712;2022-07-23T02:34:53;6.35;;;4.90;;
41677;SDS011;27364;49.026;8.712;2022-07-23T02:37:18;6.15;;;4.60;;
41677;SDS011;27364;49.026;8.712;2022-07-23T02:39:44;6.70;;;4.78;;
41677;SDS011;27364;49.026;8.712;2022-07-23T02:42:10;5.85;;;4.65;;
41677;SDS011;27364;49.026;8.712;2022-07-23T02:44:35;5.88;;;4.57;;
41677;SDS011;27364;49.026;8.712;2022-07-23T02:47:02;6.50;;;4.72;;
41677;SDS011;27364;49.026;8.712;2022-07-23T02:49:27;6.13;;;4.93;;
41677;SDS011;27364;49.026;8.712;2022-07-23T02:51:53;6.53;;;4.35;;
41677;SDS011;27364;49.026;8.712;2022-07-23T02:54:19;8.57;;;4.90;;
41677;SDS011;27364;49.026;8.712;2022-07-23T02:56:44;6.53;;;4.57;;
41677;SDS011;27364;49.026;8.712;2022-07-23T02:59:10;6.68;;;4.70;;
41677;SDS011;27364;49.026;8.712;2022-07-23T03:01:35;5.88;;;4.70;;
41677;SDS011;27364;49.026;8.712;2022-07-23T03:04:01;6.28;;;4.68;;
41677;SDS011;27364;49.026;8.712;2022-07-23T03:06:27;7.28;;;4.53;;
41677;SDS011;27364;49.026;8.712;2022-07-23T03:08:52;7.13;;;4.43;;
41677;SDS011;27364;49.026;8.712;2022-07-23T03:11:18;6.70;;;4.40;;
41677;SDS011;27364;49.026;8.712;2022-07-23T03:13:43;6.07;;;4.68;;
41677;SDS011;27364;49.026;8.712;2022-07-23T03:16:09;6.38;;;4.70;;
41677;SDS011;27364;49.026;8.712;2022-07-23T03:18:35;6.43;;;4.20;;
41677;SDS011;27364;49.026;8.712;2022-07-23T03:21:00;6.13;;;4.70;;
41677;SDS011;27364;49.026;8.712;2022-07-23T03:23:26;6.00;;;4.65;;
41677;SDS011;27364;49.026;8.712;2022-07-23T03:25:51;6.72;;;4.50;;
41677;SDS011;27364;49.026;8.712;2022-07-23T03:28:17;6.05;;;4.55;;
41677;SDS011;27364;49.026;8.712;2022-07-23T03:30:44;6.53;;;4.72;;
41677;SDS011;27364;49.026;8.712;2022-07-23T03:33:11;5.85;;;4.03;;
41677;SDS011;27364;49.026;8.712;2022-07-23T03:35:38;7.15;;;4.18;;
41677;SDS011;27364;49.026;8.712;2022-07-23T03:38:03;5.90;;;4.40;;
41677;SDS011;27364;49.026;8.712;2022-07-23T03:40:29;5.88;;;4.40;;
41677;SDS011;27364;49.026;8.712;2022-07-23T03:42:54;6.78;;;4.30;;
41677;SDS011;27364;49.026;8.712;2022-07-23T03:45:20;6.65;;;4.13;;
41677;SDS011;27364;49.026;8.712;2022-07-23T03:47:45;5.00;;;3.80;;
41677;SDS011;27364;49.026;8.712;2022-07-23T03:50:11;7.63;;;4.22;;
41677;SDS011;27364;49.026;8.712;2022-07-23T03:52:36;5.10;;;4.10;;
41677;SDS011;27364;49.026;8.712;2022-07-23T03:55:02;6.60;;;4.38;;
41677;SDS011;27364;49.026;8.712;2022-07-23T03:57:28;6.28;;;4.28;;
41677;SDS011;27364;49.026;8.712;2022-07-23T03:59:54;6.07;;;4.28;;
41677;SDS011;27364;49.026;8.712;2022-07-23T04:02:20;9.35;;;5.60;;
41677;SDS011;27364;49.026;8.712;2022-07-23T04:04:45;7.47;;;4.88;;
41677;SDS011;27364;49.026;8.712;2022-07-23T04:07:11;5.60;;;4.22;;
41677;SDS011;27364;49.026;8.712;2022-07-23T04:09:39;5.68;;;4.47;;
41677;SDS011;27364;49.026;8.712;2022-07-23T04:12:07;5.68;;;4.00;;
41677;SDS011;27364;49.026;8.712;2022-07-23T04:14:33;6.13;;;4.50;;
41677;SDS011;27364;49.026;8.712;2022-07-23T04:16:59;5.63;;;4.20;;
41677;SDS011;27364;49.026;8.712;2022-07-23T04:19:25;6.55;;;4.70;;
41677;SDS011;27364;49.026;8.712;2022-07-23T04:21:51;6.75;;;4.85;;
41677;SDS011;27364;49.026;8.712;2022-07-23T04:24:16;6.50;;;4.57;;
41677;SDS011;27364;49.026;8.712;2022-07-23T04:26:42;6.30;;;4.53;;
41677;SDS011;27364;49.026;8.712;2022-07-23T04:29:08;9.38;;;4.88;;
41677;SDS011;27364;49.026;8.712;2022-07-23T04:31:34;5.63;;;4.32;;
41677;SDS011;27364;49.026;8.712;2022-07-23T04:33:59;6.47;;;4.72;;
41677;SDS011;27364;49.026;8.712;2022-07-23T04:36:25;6.38;;;4.35;;
41677;SDS011;27364;49.026;8.712;2022-07-23T04:38:50;5.25;;;4.03;;
41677;SDS011;27364;49.026;8.712;2022-07-23T04:41:16;6.15;;;4.70;;
41677;SDS011;27364;49.026;8.712;2022-07-23T04:43:41;5.85;;;4.22;;
41677;SDS011;27364;49.026;8.712;2022-07-23T04:46:07;5.68;;;4.60;;
41677;SDS011;27364;49.026;8.712;2022-07-23T04:48:32;6.20;;;4.88;;
41677;SDS011;27364;49.026;8.712;2022-07-23T04:50:58;6.70;;;4.38;;
41677;SDS011;27364;49.026;8.712;2022-07-23T04:53:23;5.32;;;4.13;;
41677;SDS011;27364;49.026;8.712;2022-07-23T04:55:49;5.03;;;4.03;;
41677;SDS011;27364;49.026;8.712;2022-07-23T04:58:14;10.25;;;4.65;;
41677;SDS011;27364;49.026;8.712;2022-07-23T05:00:40;6.82;;;4.32;;
41677;SDS011;27364;49.026;8.712;2022-07-23T05:03:06;5.60;;;4.63;;
41677;SDS011;27364;49.026;8.712;2022-07-23T05:05:31;7.15;;;5.00;;
41677;SDS011;27364;49.026;8.712;2022-07-23T05:07:57;5.82;;;4.60;;
41677;SDS011;27364;49.026;8.712;2022-07-23T05:10:23;6.90;;;4.28;;
41677;SDS011;27364;49.026;8.712;2022-07-23T05:12:48;5.97;;;4.30;;
41677;SDS011;27364;49.026;8.712;2022-07-23T05:15:14;6.25;;;4.38;;
41677;SDS011;27364;49.026;8.712;2022-07-23T05:17:39;6.57;;;4.70;;
41677;SDS011;27364;49.026;8.712;2022-07-23T05:20:05;7.18;;;4.70;;
41677;SDS011;27364;49.026;8.712;2022-07-23T05:22:31;6.57;;;4.30;;
41677;SDS011;27364;49.026;8.712;2022-07-23T05:24:57;7.22;;;4.60;;
41677;SDS011;27364;49.026;8.712;2022-07-23T05:27:22;6.15;;;4.50;;
41677;SDS011;27364;49.026;8.712;2022-07-23T05:29:48;7.10;;;4.43;;
41677;SDS011;27364;49.026;8.712;2022-07-23T05:32:13;5.63;;;4.68;;
41677;SDS011;27364;49.026;8.712;2022-07-23T05:34:39;6.25;;;4.53;;
41677;SDS011;27364;49.026;8.712;2022-07-23T05:37:05;5.93;;;4.57;;
41677;SDS011;27364;49.026;8.712;2022-07-23T05:39:31;7.35;;;4.78;;
41677;SDS011;27364;49.026;8.712;2022-07-23T05:41:56;6.32;;;4.25;;
41677;SDS011;27364;49.026;8.712;2022-07-23T05:44:23;6.88;;;5.10;;
41677;SDS011;27364;49.026;8.712;2022-07-23T05:46:48;7.57;;;4.75;;
41677;SDS011;27364;49.026;8.712;2022-07-23T05:49:14;6.88;;;5.18;;
41677;SDS011;27364;49.026;8.712;2022-07-23T05:51:39;7.50;;;5.15;;
41677;SDS011;27364;49.026;8.712;2022-07-23T05:54:05;6.70;;;4.78;;
41677;SDS011;27364;49.026;8.712;2022-07-23T05:56:30;7.30;;;4.82;;
41677;SDS011;27364;49.026;8.712;2022-07-23T05:58:56;6.97;;;5.32;;
41677;SDS011;27364;49.026;8.712;2022-07-23T06:01:22;7.35;;;5.07;;
41677;SDS011;27364;49.026;8.712;2022-07-23T06:03:48;6.38;;;5.20;;
41677;SDS011;27364;49.026;8.712;2022-07-23T06:06:13;6.35;;;4.70;;
41677;SDS011;27364;49.026;8.712;2022-07-23T06:08:39;7.05;;;4.80;;
41677;SDS011;27364;49.026;8.712;2022-07-23T06:11:04;8.95;;;5.00;;
41677;SDS011;27364;49.026;8.712;2022-07-23T06:13:30;11.93;;;5.85;;
41677;SDS011;27364;49.026;8.712;2022-07-23T06:15:56;7.05;;;4.60;;
41677;SDS011;27364;49.026;8.712;2022-07-23T06:18:21;6.95;;;4.55;;
41677;SDS011;27364;49.026;8.712;2022-07-23T06:20:47;7.50;;;5.10;;
41677;SDS011;27364;49.026;8.712;2022-07-23T06:23:12;6.85;;;4.95;;
41677;SDS011;27364;49.026;8.712;2022-07-23T06:25:38;6.30;;;4.72;;
41677;SDS011;27364;49.026;8.712;2022-07-23T06:28:03;5.72;;;4.68;;
41677;SDS011;27364;49.026;8.712;2022-07-23T06:30:29;6.53;;;5.10;;
41677;SDS011;27364;49.026;8.712;2022-07-23T06:32:55;6.13;;;4.97;;
41677;SDS011;27364;49.026;8.712;2022-07-23T06:35:20;9.02;;;5.55;;
41677;SDS011;27364;49.026;8.712;2022-07-23T06:37:46;9.10;;;5.03;;
41677;SDS011;27364;49.026;8.712;2022-07-23T06:40:11;7.63;;;5.07;;
41677;SDS011;27364;49.026;8.712;2022-07-23T06:42:37;5.97;;;4.50;;
41677;SDS011;27364;49.026;8.712;2022-07-23T06:45:04;8.02;;;4.82;;
41677;SDS011;27364;49.026;8.712;2022-07-23T06:47:33;7.13;;;4.85;;
41677;SDS011;27364;49.026;8.712;2022-07-23T06:49:58;6.40;;;4.65;;
41677;SDS011;27364;49.026;8.712;2022-07-23T06:52:24;6.20;;;4.75;;
41677;SDS011;27364;49.026;8.712;2022-07-23T06:54:51;8.73;;;5.35;;
41677;SDS011;27364;49.026;8.712;2022-07-23T06:57:16;5.70;;;4.85;;
41677;SDS011;27364;49.026;8.712;2022-07-23T06:59:42;6.78;;;5.25;;
41677;SDS011;27364;49.026;8.712;2022-07-23T07:02:08;10.77;;;5.47;;
41677;SDS011;27364;49.026;8.712;2022-07-23T07:04:33;7.50;;;5.50;;
41677;SDS011;27364;49.026;8.712;2022-07-23T07:06:59;6.95;;;5.32;;
41677;SDS011;27364;49.026;8.712;2022-07-23T07:09:25;9.27;;;5.55;;
41677;SDS011;27364;49.026;8.712;2022-07-23T07:11:50;6.40;;;4.93;;
41677;SDS011;27364;49.026;8.712;2022-07-23T07:14:16;8.55;;;5.25;;
41677;SDS011;27364;49.026;8.712;2022-07-23T07:16:42;6.88;;;5.40;;
41677;SDS011;27364;49.026;8.712;2022-07-23T07:19:07;6.22;;;4.85;;
41677;SDS011;27364;49.026;8.712;2022-07-23T07:21:33;7.95;;;5.22;;
41677;SDS011;27364;49.026;8.712;2022-07-23T07:23:58;7.85;;;5.25;;
41677;SDS011;27364;49.026;8.712;2022-07-23T07:26:24;7.20;;;5.20;;
41677;SDS011;27364;49.026;8.712;2022-07-23T07:28:50;7.68;;;5.40;;
41677;SDS011;27364;49.026;8.712;2022-07-23T07:31:16;9.68;;;6.38;;
41677;SDS011;27364;49.026;8.712;2022-07-23T07:33:41;9.30;;;6.50;;
41677;SDS011;27364;49.026;8.712;2022-07-23T07:36:07;7.88;;;5.57;;
41677;SDS011;27364;49.026;8.712;2022-07-23T07:38:33;7.13;;;5.30;;
41677;SDS011;27364;49.026;8.712;2022-07-23T07:40:59;8.63;;;5.57;;
41677;SDS011;27364;49.026;8.712;2022-07-23T07:43:24;6.75;;;5.45;;
41677;SDS011;27364;49.026;8.712;2022-07-23T07:45:50;10.98;;;5.82;;
41677;SDS011;27364;49.026;8.712;2022-07-23T07:48:15;7.70;;;4.88;;
41677;SDS011;27364;49.026;8.712;2022-07-23T07:50:41;7.68;;;5.32;;
41677;SDS011;27364;49.026;8.712;2022-07-23T07:53:07;7.60;;;5.10;;
41677;SDS011;27364;49.026;8.712;2022-07-23T07:55:33;5.80;;;5.13;;
41677;SDS011;27364;49.026;8.712;2022-07-23T07:57:59;7.22;;;5.50;;
41677;SDS011;27364;49.026;8.712;2022-07-23T08:00:25;7.13;;;5.40;;
41677;SDS011;27364;49.026;8.712;2022-07-23T08:02:51;6.75;;;5.28;;
41677;SDS011;27364;49.026;8.712;2022-07-23T08:05:18;6.53;;;5.18;;
41677;SDS011;27364;49.026;8.712;2022-07-23T08:07:49;6.50;;;4.82;;
41677;SDS011;27364;49.026;8.712;2022-07-23T08:10:14;7.68;;;5.32;;
41677;SDS011;27364;49.026;8.712;2022-07-23T08:12:45;7.10;;;5.70;;
41677;SDS011;27364;49.026;8.712;2022-07-23T08:15:16;7.57;;;4.90;;
41677;SDS011;27364;49.026;8.712;2022-07-23T08:17:43;6.50;;;5.30;;
41677;SDS011;27364;49.026;8.712;2022-07-23T08:20:10;8.00;;;5.37;;
41677;SDS011;27364;49.026;8.712;2022-07-23T08:22:44;7.20;;;5.40;;
41677;SDS011;27364;49.026;8.712;2022-07-23T08:25:25;6.20;;;4.93;;
41677;SDS011;27364;49.026;8.712;2022-07-23T08:27:52;6.85;;;5.50;;
41677;SDS011;27364;49.026;8.712;2022-07-23T08:30:18;8.23;;;5.07;;
41677;SDS011;27364;49.026;8.712;2022-07-23T08:32:48;6.22;;;4.97;;
41677;SDS011;27364;49.026;8.712;2022-07-23T08:35:16;9.35;;;5.50;;
41677;SDS011;27364;49.026;8.712;2022-07-23T08:37:42;7.60;;;5.32;;
41677;SDS011;27364;49.026;8.712;2022-07-23T08:40:08;7.07;;;5.30;;
41677;SDS011;27364;49.026;8.712;2022-07-23T08:42:34;6.47;;;5.00;;
41677;SDS011;27364;49.026;8.712;2022-07-23T08:45:02;7.43;;;4.63;;
41677;SDS011;27364;49.026;8.712;2022-07-23T08:47:28;6.15;;;4.70;;
41677;SDS011;27364;49.026;8.712;2022-07-23T08:49:55;7.13;;;5.00;;
41677;SDS011;27364;49.026;8.712;2022-07-23T08:52:23;6.75;;;4.90;;
41677;SDS011;27364;49.026;8.712;2022-07-23T08:54:49;7.22;;;5.18;;
41677;SDS011;27364;49.026;8.712;2022-07-23T08:57:16;5.95;;;4.85;;
41677;SDS011;27364;49.026;8.712;2022-07-23T08:59:42;6.60;;;4.88;;
41677;SDS011;27364;49.026;8.712;2022-07-23T09:02:07;6.47;;;4.80;;
41677;SDS011;27364;49.026;8.712;2022-07-23T09:04:33;5.47;;;4.63;;
41677;SDS011;27364;49.026;8.712;2022-07-23T09:06:59;5.70;;;4.40;;
41677;SDS011;27364;49.026;8.712;2022-07-23T09:09:27;6.03;;;4.50;;
41677;SDS011;27364;49.026;8.712;2022-07-23T09:12:08;5.38;;;4.47;;
41677;SDS011;27364;49.026;8.712;2022-07-23T09:14:45;6.30;;;4.50;;
41677;SDS011;27364;49.026;8.712;2022-07-23T09:17:14;4.80;;;3.80;;
41677;SDS011;27364;49.026;8.712;2022-07-23T09:19:42;5.82;;;4.20;;
41677;SDS011;27364;49.026;8.712;2022-07-23T09:22:22;6.32;;;4.10;;
41677;SDS011;27364;49.026;8.712;2022-07-23T09:25:02;5.80;;;4.43;;
41677;SDS011;27364;49.026;8.712;2022-07-23T09:27:49;6.03;;;4.10;;
41677;SDS011;27364;49.026;8.712;2022-07-23T09:30:20;5.35;;;4.00;;
41677;SDS011;27364;49.026;8.712;2022-07-23T09:35:43;4.93;;;4.15;;
41677;SDS011;27364;49.026;8.712;2022-07-23T09:38:09;5.32;;;3.95;;
41677;SDS011;27364;49.026;8.712;2022-07-23T09:40:35;5.88;;;4.13;;
41677;SDS011;27364;49.026;8.712;2022-07-23T09:43:00;6.38;;;4.85;;
41677;SDS011;27364;49.026;8.712;2022-07-23T09:45:26;5.57;;;4.25;;
41677;SDS011;27364;49.026;8.712;2022-07-23T09:47:51;7.70;;;4.45;;
41677;SDS011;27364;49.026;8.712;2022-07-23T09:50:40;6.22;;;4.10;;
41677;SDS011;27364;49.026;8.712;2022-07-23T09:53:07;6.72;;;4.60;;
41677;SDS011;27364;49.026;8.712;2022-07-23T09:55:33;5.63;;;4.45;;
41677;SDS011;27364;49.026;8.712;2022-07-23T09:58:07;5.85;;;4.57;;
41677;SDS011;27364;49.026;8.712;2022-07-23T10:00:37;5.60;;;4.53;;
41677;SDS011;27364;49.026;8.712;2022-07-23T10:03:03;6.47;;;4.60;;
41677;SDS011;27364;49.026;8.712;2022-07-23T10:05:31;5.57;;;4.32;;
41677;SDS011;27364;49.026;8.712;2022-07-23T10:08:01;6.40;;;4.78;;
41677;SDS011;27364;49.026;8.712;2022-07-23T10:10:27;5.05;;;4.13;;
41677;SDS011;27364;49.026;8.712;2022-07-23T10:12:56;6.65;;;4.45;;
41677;SDS011;27364;49.026;8.712;2022-07-23T10:15:40;6.50;;;4.68;;
41677;SDS011;27364;49.026;8.712;2022-07-23T10:18:07;5.82;;;4.13;;
41677;SDS011;27364;49.026;8.712;2022-07-23T10:20:36;6.53;;;4.45;;
41677;SDS011;27364;49.026;8.712;2022-07-23T10:25:49;6.25;;;4.50;;
41677;SDS011;27364;49.026;8.712;2022-07-23T10:31:05;7.35;;;5.07;;
41677;SDS011;27364;49.026;8.712;2022-07-23T10:36:22;7.78;;;4.30;;
41677;SDS011;27364;49.026;8.712;2022-07-23T10:41:40;7.15;;;5.18;;
41677;SDS011;27364;49.026;8.712;2022-07-23T10:44:10;6.95;;;4.72;;
41677;SDS011;27364;49.026;8.712;2022-07-23T10:46:53;7.03;;;5.13;;
41677;SDS011;27364;49.026;8.712;2022-07-23T10:49:45;8.48;;;5.13;;
41677;SDS011;27364;49.026;8.712;2022-07-23T10:54:40;5.60;;;4.25;;
41677;SDS011;27364;49.026;8.712;2022-07-23T10:57:06;6.60;;;4.72;;
41677;SDS011;27364;49.026;8.712;2022-07-23T11:02:30;8.50;;;5.22;;
41677;SDS011;27364;49.026;8.712;2022-07-23T11:05:09;5.63;;;4.57;;
41677;SDS011;27364;49.026;8.712;2022-07-23T11:08:09;7.88;;;5.03;;
41677;SDS011;27364;49.026;8.712;2022-07-23T11:10:35;6.25;;;4.70;;
41677;SDS011;27364;49.026;8.712;2022-07-23T11:26:54;6.78;;;5.20;;
41677;SDS011;27364;49.026;8.712;2022-07-23T11:34:40;7.05;;;5.22;;
41677;SDS011;27364;49.026;8.712;2022-07-23T11:37:08;5.88;;;4.72;;
41677;SDS011;27364;49.026;8.712;2022-07-23T11:39:36;6.03;;;4.95;;
41677;SDS011;27364;49.026;8.712;2022-07-23T11:42:02;7.03;;;5.18;;
41677;SDS011;27364;49.026;8.712;2022-07-23T11:44:36;6.70;;;4.60;;
41677;SDS011;27364;49.026;8.712;2022-07-23T11:47:04;7.90;;;4.60;;
41677;SDS011;27364;49.026;8.712;2022-07-23T11:49:31;5.75;;;4.22;;
41677;SDS011;27364;49.026;8.712;2022-07-23T11:52:03;5.68;;;4.43;;
41677;SDS011;27364;49.026;8.712;2022-07-23T11:54:46;5.20;;;3.60;;
41677;SDS011;27364;49.026;8.712;2022-07-23T11:57:14;4.75;;;3.72;;
41677;SDS011;27364;49.026;8.712;2022-07-23T11:59:40;5.20;;;4.28;;
41677;SDS011;27364;49.026;8.712;2022-07-23T12:02:08;6.05;;;4.30;;
41677;SDS011;27364;49.026;8.712;2022-07-23T12:04:40;7.57;;;3.70;;
41677;SDS011;27364;49.026;8.712;2022-07-23T12:12:39;5.72;;;4.00;;
41677;SDS011;27364;49.026;8.712;2022-07-23T12:15:14;5.78;;;4.25;;
41677;SDS011;27364;49.026;8.712;2022-07-23T12:17:43;5.63;;;4.22;;
41677;SDS011;27364;49.026;8.712;2022-07-23T12:20:12;5.88;;;4.53;;
41677;SDS011;27364;49.026;8.712;2022-07-23T12:22:50;7.70;;;4.90;;
41677;SDS011;27364;49.026;8.712;2022-07-23T12:25:18;5.57;;;4.10;;
41677;SDS011;27364;49.026;8.712;2022-07-23T12:27:46;6.00;;;4.78;;
41677;SDS011;27364;49.026;8.712;2022-07-23T12:30:27;5.97;;;4.57;;
41677;SDS011;27364;49.026;8.712;2022-07-23T12:32:56;6.10;;;4.30;;
41677;SDS011;27364;49.026;8.712;2022-07-23T12:35:29;6.22;;;4.82;;
41677;SDS011;27364;49.026;8.712;2022-07-23T12:37:59;6.38;;;4.88;;
41677;SDS011;27364;49.026;8.712;2022-07-23T12:40:29;6.32;;;4.82;;
41677;SDS011;27364;49.026;8.712;2022-07-23T12:43:07;7.00;;;4.88;;
41677;SDS011;27364;49.026;8.712;2022-07-23T12:46:35;6.05;;;4.60;;
41677;SDS011;27364;49.026;8.712;2022-07-23T12:48:57;5.72;;;4.80;;
41677;SDS011;27364;49.026;8.712;2022-07-23T12:51:26;6.05;;;5.05;;
41677;SDS011;27364;49.026;8.712;2022-07-23T12:54:03;7.07;;;4.88;;
41677;SDS011;27364;49.026;8.712;2022-07-23T12:56:35;7.20;;;4.50;;
41677;SDS011;27364;49.026;8.712;2022-07-23T12:59:06;6.68;;;4.60;;
41677;SDS011;27364;49.026;8.712;2022-07-23T13:01:36;6.63;;;4.40;;
41677;SDS011;27364;49.026;8.712;2022-07-23T13:06:45;6.53;;;4.43;;
41677;SDS011;27364;49.026;8.712;2022-07-23T13:09:14;5.47;;;4.43;;
41677;SDS011;27364;49.026;8.712;2022-07-23T13:11:47;6.32;;;4.70;;
41677;SDS011;27364;49.026;8.712;2022-07-23T13:14:14;7.15;;;4.40;;
41677;SDS011;27364;49.026;8.712;2022-07-23T13:16:41;5.22;;;4.30;;
41677;SDS011;27364;49.026;8.712;2022-07-23T13:19:07;5.47;;;4.40;;
41677;SDS011;27364;49.026;8.712;2022-07-23T13:21:33;6.65;;;4.10;;
41677;SDS011;27364;49.026;8.712;2022-07-23T13:23:59;5.53;;;4.75;;
41677;SDS011;27364;49.026;8.712;2022-07-23T13:26:25;6.40;;;4.75;;
41677;SDS011;27364;49.026;8.712;2022-07-23T13:28:51;5.38;;;4.30;;
41677;SDS011;27364;49.026;8.712;2022-07-23T13:31:17;6.10;;;4.40;;
41677;SDS011;27364;49.026;8.712;2022-07-23T13:33:44;6.07;;;4.43;;
41677;SDS011;27364;49.026;8.712;2022-07-23T13:36:09;5.93;;;4.43;;
41677;SDS011;27364;49.026;8.712;2022-07-23T13:38:36;6.75;;;4.57;;
41677;SDS011;27364;49.026;8.712;2022-07-23T13:41:02;5.88;;;4.40;;
41677;SDS011;27364;49.026;8.712;2022-07-23T13:43:28;5.03;;;4.05;;
41677;SDS011;27364;49.026;8.712;2022-07-23T13:45:54;6.20;;;4.30;;
41677;SDS011;27364;49.026;8.712;2022-07-23T13:48:20;5.38;;;4.35;;
41677;SDS011;27364;49.026;8.712;2022-07-23T13:50:46;6.68;;;4.68;;
41677;SDS011;27364;49.026;8.712;2022-07-23T13:53:18;6.15;;;4.50;;
41677;SDS011;27364;49.026;8.712;2022-07-23T13:55:45;5.25;;;3.88;;
41677;SDS011;27364;49.026;8.712;2022-07-23T13:58:12;6.03;;;4.40;;
41677;SDS011;27364;49.026;8.712;2022-07-23T14:00:39;5.40;;;4.00;;
41677;SDS011;27364;49.026;8.712;2022-07-23T14:03:06;5.25;;;4.22;;
41677;SDS011;27364;49.026;8.712;2022-07-23T14:05:32;5.57;;;4.10;;
41677;SDS011;27364;49.026;8.712;2022-07-23T14:07:58;5.45;;;4.20;;
41677;SDS011;27364;49.026;8.712;2022-07-23T14:10:24;5.07;;;4.18;;
41677;SDS011;27364;49.026;8.712;2022-07-23T14:12:50;6.22;;;3.88;;
41677;SDS011;27364;49.026;8.712;2022-07-23T14:15:17;7.30;;;3.95;;
41677;SDS011;27364;49.026;8.712;2022-07-23T14:17:44;6.55;;;4.78;;
41677;SDS011;27364;49.026;8.712;2022-07-23T14:20:11;6.80;;;5.07;;
41677;SDS011;27364;49.026;8.712;2022-07-23T14:22:37;9.77;;;4.70;;
41677;SDS011;27364;49.026;8.712;2022-07-23T14:25:04;5.05;;;4.38;;
41677;SDS011;27364;49.026;8.712;2022-07-23T14:27:31;7.88;;;4.25;;
41677;SDS011;27364;49.026;8.712;2022-07-23T14:29:57;5.68;;;4.20;;
41677;SDS011;27364;49.026;8.712;2022-07-23T14:32:23;5.70;;;4.15;;
41677;SDS011;27364;49.026;8.712;2022-07-23T14:34:49;4.78;;;3.85;;
41677;SDS011;27364;49.026;8.712;2022-07-23T14:37:15;9.75;;;3.97;;
41677;SDS011;27364;49.026;8.712;2022-07-23T14:39:42;4.90;;;4.15;;
41677;SDS011;27364;49.026;8.712;2022-07-23T14:42:08;7.47;;;4.28;;
41677;SDS011;27364;49.026;8.712;2022-07-23T14:44:35;6.80;;;4.05;;
41677;SDS011;27364;49.026;8.712;2022-07-23T14:47:02;5.95;;;4.28;;
41677;SDS011;27364;49.026;8.712;2022-07-23T14:49:29;6.03;;;4.40;;
41677;SDS011;27364;49.026;8.712;2022-07-23T14:51:55;5.45;;;3.88;;
41677;SDS011;27364;49.026;8.712;2022-07-23T14:54:21;5.00;;;3.97;;
41677;SDS011;27364;49.026;8.712;2022-07-23T14:56:47;7.47;;;4.93;;
41677;SDS011;27364;49.026;8.712;2022-07-23T14:59:13;5.68;;;3.95;;
41677;SDS011;27364;49.026;8.712;2022-07-23T15:01:38;5.30;;;3.95;;
41677;SDS011;27364;49.026;8.712;2022-07-23T15:04:05;6.78;;;4.15;;
41677;SDS011;27364;49.026;8.712;2022-07-23T15:06:31;5.75;;;4.40;;
41677;SDS011;27364;49.026;8.712;2022-07-23T15:08:57;6.65;;;4.63;;
41677;SDS011;27364;49.026;8.712;2022-07-23T15:11:23;5.45;;;4.20;;
41677;SDS011;27364;49.026;8.712;2022-07-23T15:13:49;5.93;;;4.45;;
41677;SDS011;27364;49.026;8.712;2022-07-23T15:16:14;6.35;;;4.80;;
41677;SDS011;27364;49.026;8.712;2022-07-23T15:18:40;5.93;;;4.63;;
41677;SDS011;27364;49.026;8.712;2022-07-23T15:21:06;5.72;;;4.22;;
41677;SDS011;27364;49.026;8.712;2022-07-23T15:23:31;7.35;;;4.38;;
41677;SDS011;27364;49.026;8.712;2022-07-23T15:25:57;5.90;;;4.80;;
41677;SDS011;27364;49.026;8.712;2022-07-23T15:28:23;5.40;;;4.45;;
41677;SDS011;27364;49.026;8.712;2022-07-23T15:30:49;4.65;;;4.13;;
41677;SDS011;27364;49.026;8.712;2022-07-23T15:35:41;5.73;;;4.33;;
41677;SDS011;27364;49.026;8.712;2022-07-23T15:38:07;6.00;;;4.88;;